createdAt,value
2023-02-03T00:00:28.745Z,5.02
2023-02-03T00:03:03.279Z,5.10
2023-02-03T00:05:37.923Z,5.14
2023-02-03T00:08:12.349Z,5.22
2023-02-03T00:10:46.231Z,5.26
2023-02-03T00:13:20.014Z,5.33
2023-02-03T00:15:54.992Z,5.38
2023-02-03T00:18:29.451Z,5.48
2023-02-03T00:21:03.041Z,5.56
2023-02-03T00:23:37.017Z,5.62
2023-02-03T00:26:11.614Z,5.73
2023-02-03T00:28:45.768Z,5.95
2023-02-03T00:31:23.315Z,6.02
2023-02-03T00:33:58.669Z,6.09
2023-02-03T00:36:32.288Z,6.19
2023-02-03T00:39:06.311Z,6.24
2023-02-03T00:41:40.380Z,6.29
2023-02-03T00:44:15.335Z,6.34
2023-02-03T00:46:50.276Z,6.41
2023-02-03T00:49:24.073Z,6.47
2023-02-03T00:51:57.674Z,6.50
2023-02-03T00:54:32.768Z,6.59
2023-02-03T00:57:07.460Z,6.66
2023-02-03T00:59:41.468Z,6.70
2023-02-03T01:02:17.098Z,6.75
2023-02-03T01:04:51.141Z,6.80
2023-02-03T01:07:24.677Z,6.83
2023-02-03T01:09:58.401Z,6.87
2023-02-03T01:12:32.589Z,6.93
2023-02-03T01:15:07.336Z,6.97
2023-02-03T01:17:42.401Z,7.03
2023-02-03T01:20:17.211Z,7.09
2023-02-03T01:22:50.900Z,7.12
2023-02-03T01:25:24.664Z,7.15
2023-02-03T01:27:58.460Z,7.18
2023-02-03T01:30:32.543Z,7.21
2023-02-03T01:33:10.529Z,7.27
2023-02-03T01:35:44.325Z,7.26
2023-02-03T01:38:18.043Z,7.24
2023-02-03T01:40:51.914Z,7.33
2023-02-03T01:43:33.159Z,7.33
2023-02-03T01:46:23.647Z,7.34
2023-02-03T01:49:06.323Z,7.32
2023-02-03T01:51:43.852Z,7.31
2023-02-03T01:54:20.287Z,7.36
2023-02-03T01:56:57.095Z,7.31
2023-02-03T01:59:32.700Z,7.29
2023-02-03T02:02:08.591Z,7.38
2023-02-03T02:04:53.053Z,7.38
2023-02-03T02:07:27.290Z,7.39
2023-02-03T02:10:01.721Z,7.34
2023-02-03T02:12:35.623Z,7.34
2023-02-03T02:15:10.515Z,7.38
2023-02-03T02:18:03.644Z,7.38
2023-02-03T02:21:02.596Z,7.38
2023-02-03T02:24:16.368Z,7.40
2023-02-03T02:27:01.820Z,7.39
2023-02-03T02:30:09.117Z,7.39
2023-02-03T02:33:05.196Z,7.38
2023-02-03T02:35:51.832Z,7.43
2023-02-03T02:38:40.500Z,7.44
2023-02-03T02:41:17.284Z,7.44
2023-02-03T02:43:59.105Z,7.38
2023-02-03T02:46:37.270Z,7.40
2023-02-03T02:49:18.413Z,7.42
2023-02-03T02:51:54.164Z,7.40
2023-02-03T02:54:30.780Z,7.43
2023-02-03T02:57:06.909Z,7.45
2023-02-03T02:59:40.557Z,7.49
2023-02-03T03:02:14.557Z,7.49
2023-02-03T03:04:51.586Z,7.44
2023-02-03T03:07:29.025Z,7.45
2023-02-03T03:10:06.511Z,7.42
2023-02-03T03:12:46.488Z,7.44
2023-02-03T03:15:23.887Z,7.61
2023-02-03T03:18:02.805Z,7.69
2023-02-03T03:20:40.429Z,7.66
2023-02-03T03:23:20.396Z,7.67
2023-02-03T03:25:58.870Z,7.55
2023-02-03T03:28:38.599Z,7.59
2023-02-03T03:31:12.353Z,7.57
2023-02-03T03:33:47.331Z,7.54
2023-02-03T03:36:27.909Z,7.54
2023-02-03T03:39:06.508Z,7.52
2023-02-03T03:41:49.281Z,7.56
2023-02-03T03:44:26.668Z,7.56
2023-02-03T03:47:07.531Z,7.59
2023-02-03T03:49:45.429Z,7.57
2023-02-03T03:52:25.788Z,7.55
2023-02-03T03:55:01.622Z,7.57
2023-02-03T03:57:39.438Z,7.58
2023-02-03T04:00:19.063Z,7.57
2023-02-03T04:02:55.504Z,7.55
2023-02-03T04:05:29.574Z,7.55
2023-02-03T04:08:04.520Z,7.51
2023-02-03T04:10:40.334Z,7.51
2023-02-03T04:13:15.904Z,7.48
2023-02-03T04:15:49.792Z,7.47
2023-02-03T04:18:23.445Z,7.51
2023-02-03T04:20:57.201Z,7.46
2023-02-03T04:23:32.182Z,7.47
2023-02-03T04:26:06.289Z,7.45
2023-02-03T04:28:39.998Z,7.46
2023-02-03T04:31:13.962Z,7.46
2023-02-03T04:33:47.982Z,7.45
2023-02-03T04:36:22.124Z,7.45
2023-02-03T04:38:57.177Z,7.48
2023-02-03T04:41:31.040Z,7.49
2023-02-03T04:44:04.859Z,7.46
2023-02-03T04:46:38.583Z,7.46
2023-02-03T04:49:12.302Z,7.45
2023-02-03T04:51:46.333Z,7.47
2023-02-03T04:54:21.504Z,7.48
2023-02-03T04:56:55.658Z,7.48
2023-02-03T04:59:29.369Z,7.54
2023-02-03T05:02:04.215Z,7.51
2023-02-03T05:04:37.870Z,7.53
2023-02-03T05:07:11.703Z,7.54
2023-02-03T05:09:46.635Z,7.55
2023-02-03T05:12:20.489Z,7.56
2023-02-03T05:14:54.032Z,7.60
2023-02-03T05:17:27.859Z,7.61
2023-02-03T05:20:01.849Z,7.52
2023-02-03T05:22:36.618Z,7.49
2023-02-03T05:25:11.736Z,7.52
2023-02-03T05:27:45.647Z,7.52
2023-02-03T05:30:19.760Z,7.51
2023-02-03T05:32:53.587Z,7.54
2023-02-03T05:35:27.337Z,7.58
2023-02-03T05:38:01.510Z,7.57
2023-02-03T05:40:59.554Z,7.55
2023-02-03T05:43:34.199Z,7.55
2023-02-03T05:46:08.906Z,7.56
2023-02-03T05:48:42.728Z,7.57
2023-02-03T05:51:16.474Z,7.56
2023-02-03T05:53:50.355Z,7.54
2023-02-03T05:56:25.458Z,7.53
2023-02-03T05:58:59.358Z,7.54
2023-02-03T06:01:33.804Z,7.54
2023-02-03T06:04:08.048Z,7.52
2023-02-03T06:06:41.673Z,7.50
2023-02-03T06:09:15.525Z,7.52
2023-02-03T06:11:50.639Z,7.57
2023-02-03T06:14:24.678Z,7.53
2023-02-03T06:16:58.313Z,7.51
2023-02-03T06:19:32.079Z,7.54
2023-02-03T06:22:05.713Z,7.55
2023-02-03T06:24:39.545Z,7.59
2023-02-03T06:27:14.724Z,7.54
2023-02-03T06:29:48.567Z,7.58
2023-02-03T06:32:22.388Z,7.59
2023-02-03T06:34:56.173Z,7.60
2023-02-03T06:37:29.742Z,7.70
2023-02-03T06:40:04.392Z,7.67
2023-02-03T06:42:39.758Z,7.67
2023-02-03T06:45:13.693Z,7.67
2023-02-03T06:47:47.461Z,7.75
2023-02-03T06:50:21.259Z,7.73
2023-02-03T06:52:54.787Z,7.74
2023-02-03T06:55:28.763Z,7.77
2023-02-03T06:58:03.680Z,7.80
2023-02-03T07:00:37.606Z,7.84
2023-02-03T07:03:11.218Z,7.85
2023-02-03T07:05:48.926Z,7.90
2023-02-03T07:08:28.355Z,7.91
2023-02-03T07:11:02.228Z,8.01
2023-02-03T07:13:37.982Z,7.99
2023-02-03T07:16:12.036Z,7.99
2023-02-03T07:18:47.955Z,7.98
2023-02-03T07:21:23.036Z,8.01
2023-02-03T07:23:56.681Z,8.00
2023-02-03T07:26:30.833Z,8.02
2023-02-03T07:29:06.196Z,8.02
2023-02-03T07:31:40.270Z,8.01
2023-02-03T07:34:14.152Z,8.04
2023-02-03T07:36:48.201Z,8.02
2023-02-03T07:39:22.137Z,8.07
2023-02-03T07:41:55.906Z,8.03
2023-02-03T07:44:31.053Z,8.06
2023-02-03T07:47:04.978Z,8.11
2023-02-03T07:49:38.491Z,8.10
2023-02-03T07:52:12.290Z,8.14
2023-02-03T07:54:45.953Z,8.17
2023-02-03T07:57:20.069Z,8.17
2023-02-03T07:59:55.170Z,8.17
2023-02-03T08:02:29.337Z,8.19
2023-02-03T08:05:02.997Z,8.18
2023-02-03T08:07:37.059Z,8.21
2023-02-03T08:10:13.264Z,8.20
2023-02-03T08:12:48.078Z,8.20
2023-02-03T08:15:23.286Z,8.09
2023-02-03T08:17:57.330Z,7.93
2023-02-03T08:20:31.201Z,7.74
2023-02-03T08:23:05.996Z,7.66
2023-02-03T08:25:39.615Z,7.55
2023-02-03T08:28:13.772Z,7.55
2023-02-03T08:30:48.940Z,7.62
2023-02-03T08:33:22.811Z,7.65
2023-02-03T08:35:57.274Z,7.68
2023-02-03T08:38:31.161Z,7.62
2023-02-03T08:41:10.788Z,7.62
2023-02-03T08:43:44.921Z,7.72
2023-02-03T08:46:20.014Z,7.73
2023-02-03T08:48:56.522Z,7.75
2023-02-03T08:51:30.205Z,7.84
2023-02-03T08:54:04.430Z,7.86
2023-02-03T08:56:38.210Z,7.80
2023-02-03T08:59:12.456Z,7.83
2023-02-03T09:01:48.508Z,7.88
2023-02-03T09:04:24.790Z,7.80
2023-02-03T09:06:58.654Z,7.84
2023-02-03T09:09:33.382Z,7.81
2023-02-03T09:12:07.869Z,7.87
2023-02-03T09:14:41.615Z,7.93
2023-02-03T09:17:16.515Z,7.93
2023-02-03T09:19:50.371Z,8.02
2023-02-03T09:22:23.874Z,7.92
2023-02-03T09:24:57.772Z,7.92
2023-02-03T09:27:31.337Z,7.99
2023-02-03T09:30:05.928Z,7.96
2023-02-03T09:32:40.902Z,7.98
2023-02-03T09:35:14.640Z,7.98
2023-02-03T09:37:48.859Z,8.02
2023-02-03T09:40:27.408Z,8.07
2023-02-03T09:43:24.018Z,8.00
2023-02-03T09:46:02.887Z,8.08
2023-02-03T09:48:40.874Z,8.19
2023-02-03T09:51:21.691Z,8.28
2023-02-03T09:53:59.616Z,8.23
2023-02-03T09:56:35.658Z,8.26
2023-02-03T09:59:11.269Z,8.27
2023-02-03T10:01:55.303Z,8.29
2023-02-03T10:04:39.924Z,8.28
2023-02-03T10:07:20.306Z,8.34
2023-02-03T10:09:59.926Z,8.33
2023-02-03T10:13:05.648Z,8.35
2023-02-03T10:16:15.381Z,8.37
2023-02-03T10:18:54.308Z,8.41
2023-02-03T10:21:37.060Z,8.48
2023-02-03T10:24:15.797Z,8.50
2023-02-03T10:26:50.856Z,8.53
2023-02-03T10:29:33.552Z,8.48
2023-02-03T10:32:10.509Z,8.58
2023-02-03T10:34:48.201Z,8.56
2023-02-03T10:37:30.277Z,8.60
2023-02-03T10:40:06.040Z,8.56
2023-02-03T10:42:56.601Z,8.56
2023-02-03T10:45:32.733Z,8.48
2023-02-03T10:48:10.078Z,8.40
2023-02-03T10:50:47.725Z,8.47
2023-02-03T10:53:25.776Z,8.36
2023-02-03T10:56:06.588Z,8.37
2023-02-03T10:58:47.862Z,8.48
2023-02-03T11:01:25.863Z,8.61
2023-02-03T11:04:03.107Z,8.66
2023-02-03T11:06:37.045Z,8.87
2023-02-03T11:09:25.235Z,8.78
2023-02-03T11:12:13.538Z,8.84
2023-02-03T11:14:49.226Z,8.87
2023-02-03T11:17:26.985Z,8.95
2023-02-03T11:20:06.488Z,8.98
2023-02-03T11:22:43.276Z,9.13
2023-02-03T11:25:21.352Z,9.15
2023-02-03T11:27:56.855Z,9.19
2023-02-03T11:30:31.100Z,9.22
2023-02-03T11:33:18.702Z,9.19
2023-02-03T11:35:58.971Z,9.28
2023-02-03T11:38:36.873Z,9.18
2023-02-03T11:41:18.907Z,9.23
2023-02-03T11:43:57.916Z,9.31
2023-02-03T11:46:31.704Z,9.15
2023-02-03T11:49:18.363Z,9.15
2023-02-03T11:51:59.637Z,9.12
2023-02-03T11:54:44.983Z,9.13
2023-02-03T11:57:31.892Z,9.12
2023-02-03T12:00:19.605Z,9.09
2023-02-03T12:03:11.926Z,9.03
2023-02-03T12:06:03.028Z,9.13
2023-02-03T12:08:52.335Z,9.22
2023-02-03T12:11:41.280Z,9.12
2023-02-03T12:14:30.756Z,9.26
2023-02-03T12:17:37.828Z,9.36
2023-02-03T12:20:29.632Z,9.42
2023-02-03T12:23:16.929Z,9.39
2023-02-03T12:26:03.731Z,9.37
2023-02-03T12:28:46.915Z,9.27
2023-02-03T12:31:29.816Z,9.17
2023-02-03T12:34:14.657Z,9.09
2023-02-03T12:36:54.422Z,9.14
2023-02-03T12:39:34.837Z,8.96
2023-02-03T12:42:16.458Z,8.93
2023-02-03T12:44:55.198Z,8.96
2023-02-03T12:47:35.925Z,8.88
2023-02-03T12:50:18.984Z,8.85
2023-02-03T12:52:56.645Z,8.84
2023-02-03T12:55:35.860Z,8.82
2023-02-03T12:58:15.969Z,8.74
2023-02-03T13:00:54.282Z,8.77
2023-02-03T13:03:36.703Z,8.81
2023-02-03T13:06:17.862Z,8.75
2023-02-03T13:08:57.339Z,8.81
2023-02-03T13:11:39.042Z,8.74
2023-02-03T13:14:19.846Z,8.66
2023-02-03T13:16:58.350Z,8.61
2023-02-03T13:19:42.180Z,8.56
2023-02-03T13:22:17.573Z,8.64
2023-02-03T13:24:56.648Z,8.56
2023-02-03T13:27:45.678Z,8.62
2023-02-03T13:30:32.151Z,8.58
2023-02-03T13:33:32.158Z,8.55
2023-02-03T13:36:25.298Z,8.49
2023-02-03T13:39:16.698Z,8.50
2023-02-03T13:41:54.994Z,8.52
2023-02-03T13:44:30.767Z,8.53
2023-02-03T13:47:04.873Z,8.49
2023-02-03T13:49:38.934Z,8.53
2023-02-03T13:52:33.615Z,8.53
2023-02-03T13:55:09.444Z,8.48
2023-02-03T13:57:43.177Z,8.47
2023-02-03T14:00:50.636Z,8.48
2023-02-03T14:03:43.313Z,8.40
2023-02-03T14:06:56.972Z,8.42
2023-02-03T14:09:42.715Z,8.31
2023-02-03T14:12:56.820Z,8.28
2023-02-03T14:15:34.395Z,8.26
2023-02-03T14:18:33.616Z,8.30
2023-02-03T14:21:19.289Z,8.27
2023-02-03T14:24:07.023Z,8.31
2023-02-03T14:26:44.887Z,8.31
2023-02-03T14:29:27.448Z,8.24
2023-02-03T14:32:02.950Z,8.20
2023-02-03T14:34:42.334Z,8.23
2023-02-03T14:37:21.028Z,8.12
2023-02-03T14:40:31.508Z,8.16
2023-02-03T14:43:26.902Z,8.05
2023-02-03T14:46:41.465Z,8.11
2023-02-03T14:49:30.759Z,8.11
2023-02-03T14:52:29.553Z,8.07
2023-02-03T14:55:18.796Z,8.04
2023-02-03T14:57:56.174Z,8.01
2023-02-03T15:00:34.512Z,8.02
2023-02-03T15:03:27.644Z,8.04
2023-02-03T15:06:03.214Z,8.09
2023-02-03T15:08:45.954Z,8.04
2023-02-03T15:11:27.003Z,8.11
2023-02-03T15:14:21.561Z,8.04
2023-02-03T15:17:02.694Z,8.05
2023-02-03T15:19:41.075Z,8.04
2023-02-03T15:22:23.091Z,8.06
2023-02-03T15:25:00.767Z,8.05
2023-02-03T15:27:34.823Z,8.03
2023-02-03T15:30:20.248Z,7.94
2023-02-03T15:33:01.561Z,7.96
2023-02-03T15:35:39.141Z,7.97
2023-02-03T15:38:16.495Z,7.96
2023-02-03T15:40:54.672Z,7.92
2023-02-03T15:43:33.666Z,7.96
2023-02-03T15:46:14.962Z,7.91
2023-02-03T15:48:53.861Z,7.89
2023-02-03T15:51:31.966Z,7.84
2023-02-03T15:54:10.275Z,7.89
2023-02-03T15:56:48.685Z,7.87
2023-02-03T15:59:25.136Z,7.91
2023-02-03T16:02:01.233Z,7.86
2023-02-03T16:04:36.326Z,7.88
2023-02-03T16:07:19.086Z,7.83
2023-02-03T16:09:54.196Z,7.88
2023-02-03T16:12:29.797Z,7.90
2023-02-03T16:15:03.431Z,7.89
2023-02-03T16:17:39.306Z,7.75
2023-02-03T16:20:24.815Z,7.75
2023-02-03T16:23:07.483Z,7.74
2023-02-03T16:25:41.123Z,7.74
2023-02-03T16:28:39.870Z,7.69
2023-02-03T16:31:34.555Z,7.60
2023-02-03T16:34:33.772Z,7.58
2023-02-03T16:37:41.759Z,7.48
2023-02-03T16:40:36.907Z,7.30
2023-02-03T16:43:32.432Z,7.22
2023-02-03T16:46:29.893Z,7.17
2023-02-03T16:49:20.996Z,7.17
2023-02-03T16:51:54.850Z,7.16
2023-02-03T16:54:29.912Z,7.19
2023-02-03T16:57:03.801Z,7.18
2023-02-03T16:59:37.393Z,7.12
2023-02-03T17:02:11.701Z,7.07
2023-02-03T17:04:45.270Z,6.95
2023-02-03T17:07:19.096Z,6.94
2023-02-03T17:09:54.213Z,6.90
2023-02-03T17:12:33.538Z,6.82
2023-02-03T17:15:08.447Z,6.73
2023-02-03T17:17:42.347Z,6.66
2023-02-03T17:20:15.982Z,6.69
2023-02-03T17:22:51.683Z,6.67
2023-02-03T17:25:29.213Z,6.68
2023-02-03T17:28:03.502Z,6.66
2023-02-03T17:30:41.308Z,6.68
2023-02-03T17:33:15.328Z,6.60
2023-02-03T17:35:48.883Z,6.57
2023-02-03T17:38:22.735Z,6.49
2023-02-03T17:55:17.496Z,6.35
2023-02-03T17:57:52.569Z,6.38
2023-02-03T18:00:27.041Z,6.34
2023-02-03T18:03:00.700Z,6.32
2023-02-03T18:05:36.886Z,6.31
2023-02-03T18:08:16.197Z,6.29
2023-02-03T18:10:57.792Z,6.31
2023-02-03T18:13:36.336Z,6.32
2023-02-03T18:16:15.128Z,6.32
2023-02-03T18:18:51.365Z,6.38
2023-02-03T18:21:26.301Z,6.41
2023-02-03T18:24:01.861Z,6.33
2023-02-03T18:26:37.258Z,6.31
2023-02-03T18:29:13.509Z,6.34
2023-02-03T18:31:47.869Z,6.31
2023-02-03T18:34:21.523Z,6.37
2023-02-03T18:36:55.487Z,6.40
2023-02-03T18:39:29.133Z,6.43
2023-02-03T18:42:03.987Z,6.44
2023-02-03T18:44:39.577Z,6.42
2023-02-03T18:47:17.401Z,6.48
2023-02-03T18:49:51.284Z,6.48
2023-02-03T18:52:25.046Z,6.50
2023-02-03T18:54:58.578Z,6.43
2023-02-03T18:57:32.816Z,6.38
2023-02-03T19:00:09.572Z,6.40
2023-02-03T19:02:43.553Z,6.37
2023-02-03T19:05:17.606Z,6.40
2023-02-03T19:07:51.914Z,6.36
2023-02-03T19:10:25.294Z,6.36
2023-02-03T19:12:59.144Z,6.35
2023-02-03T19:15:34.192Z,6.38
2023-02-03T19:18:08.227Z,6.36
2023-02-03T19:20:43.908Z,6.35
2023-02-03T19:23:17.955Z,6.31
2023-02-03T19:25:51.973Z,6.30
2023-02-03T19:28:31.038Z,6.28
2023-02-03T19:31:08.831Z,6.31
2023-02-03T19:33:43.441Z,6.34
2023-02-03T19:36:17.386Z,6.34
2023-02-03T19:38:51.258Z,6.30
2023-02-03T19:41:25.730Z,6.29
2023-02-03T19:43:59.559Z,6.36
2023-02-03T19:46:37.834Z,6.39
2023-02-03T19:49:13.294Z,6.40
2023-02-03T19:51:47.003Z,6.41
2023-02-03T19:54:20.776Z,6.39
2023-02-03T19:56:54.300Z,6.41
2023-02-03T19:59:28.215Z,6.46
2023-02-03T20:02:13.669Z,6.48
2023-02-03T20:04:49.982Z,6.45
2023-02-03T20:07:25.316Z,6.42
2023-02-03T20:09:59.275Z,6.45
2023-02-03T20:12:32.793Z,6.41
2023-02-03T20:15:07.600Z,6.50
2023-02-03T20:17:43.716Z,6.49
2023-02-03T20:20:20.402Z,6.43
2023-02-03T20:22:54.434Z,6.45
2023-02-03T20:25:29.176Z,6.38
2023-02-03T20:28:03.848Z,6.30
2023-02-03T20:30:38.818Z,6.20
2023-02-03T20:33:14.012Z,6.15
2023-02-03T20:35:48.006Z,6.10
2023-02-03T20:38:21.708Z,6.05
2023-02-03T20:40:55.519Z,5.96
2023-02-03T20:43:29.281Z,5.95
2023-02-03T20:46:03.438Z,5.89
2023-02-03T20:48:38.610Z,5.79
2023-02-03T20:51:12.824Z,5.73
2023-02-03T20:53:46.604Z,5.68
2023-02-03T20:56:22.618Z,5.66
2023-02-03T20:58:56.519Z,5.65
2023-02-03T21:01:30.462Z,5.68
2023-02-03T21:04:29.755Z,5.67
2023-02-03T21:07:11.806Z,5.53
2023-02-03T21:09:45.449Z,5.42
2023-02-03T21:12:19.181Z,5.35
2023-02-03T21:14:55.138Z,5.32
2023-02-03T21:17:28.869Z,5.30
2023-02-03T21:20:04.309Z,5.29
2023-02-03T21:22:38.397Z,5.27
2023-02-03T21:25:26.775Z,5.27
2023-02-03T21:28:01.642Z,5.28
2023-02-03T21:30:35.442Z,5.25
2023-02-03T21:33:30.439Z,5.24
2023-02-03T21:36:05.997Z,5.25
2023-02-03T21:38:40.445Z,5.24
2023-02-03T21:41:18.348Z,5.26
2023-02-03T21:43:54.651Z,5.24
2023-02-03T21:46:30.463Z,5.21
2023-02-03T21:49:05.516Z,5.22
2023-02-03T21:51:41.558Z,5.15
2023-02-03T21:54:26.250Z,5.00
2023-02-03T21:57:00.008Z,4.90
2023-02-03T21:59:42.230Z,4.84
2023-02-03T22:02:49.708Z,4.73
2023-02-03T22:05:23.455Z,4.70
2023-02-03T22:07:58.326Z,4.59
2023-02-03T22:10:32.226Z,4.59
2023-02-03T22:13:06.834Z,4.50
2023-02-03T22:15:40.703Z,4.42
2023-02-03T22:18:14.354Z,4.41
2023-02-03T22:20:48.238Z,4.37
2023-02-03T22:23:23.173Z,4.32
2023-02-03T22:25:56.972Z,4.28
2023-02-03T22:28:30.629Z,4.27
2023-02-03T22:31:05.595Z,4.24
2023-02-03T22:33:39.825Z,4.17
2023-02-03T22:36:14.432Z,4.13
2023-02-03T22:38:49.281Z,4.07
2023-02-03T22:41:23.110Z,4.02
2023-02-03T22:43:56.609Z,4.02
2023-02-03T22:46:30.504Z,3.98
2023-02-03T22:49:04.079Z,4.02
2023-02-03T22:51:37.799Z,4.03
2023-02-03T22:54:12.699Z,4.02
2023-02-03T22:56:46.395Z,4.02
2023-02-03T22:59:19.844Z,4.02
2023-02-03T23:01:53.763Z,4.06
2023-02-03T23:04:27.402Z,4.09
2023-02-03T23:07:01.461Z,4.14
2023-02-03T23:09:36.530Z,4.19
2023-02-03T23:12:10.332Z,4.22
2023-02-03T23:14:43.880Z,4.22
2023-02-03T23:17:17.716Z,4.27
2023-02-03T23:19:51.225Z,4.28
2023-02-03T23:22:25.015Z,4.30
2023-02-03T23:25:00.413Z,4.26
2023-02-03T23:27:34.281Z,4.27
2023-02-03T23:30:08.970Z,4.23
2023-02-03T23:32:42.942Z,4.22
2023-02-03T23:35:34.560Z,4.19
2023-02-03T23:38:08.270Z,4.16
2023-02-03T23:40:43.450Z,4.18
2023-02-03T23:43:17.283Z,4.17
2023-02-03T23:45:50.873Z,4.13
2023-02-03T23:48:24.630Z,4.10
2023-02-03T23:50:58.196Z,4.10
2023-02-03T23:53:32.016Z,4.07
2023-02-03T23:56:07.327Z,4.13
2023-02-03T23:58:41.133Z,4.21
